Terminal Aerodrome Forecast
Issued by NWS

Current Version | Previous Version | Text Only | Print | Product List | Glossary On
Versions: 1 2 3 4 5 6 7 8 9 10 11 12 13 14
175
FTUS42 KTBW 081724
TAFLAL
TAF
KLAL 081724Z 0818/0918 25010KT P6SM FEW040 SCT250
     FM082100 24013G24KT P6SM SCT040 BKN250
     FM090100 25013KT P6SM SCT040 BKN250
     FM090600 29012KT P6SM SCT030 BKN040=

USA.gov is the U.S. government's official web portal to all federal, state and local government web resources and services.